Time;durP1;ratioP1;P1;durP2;ratioP2;P2;SDS_P1;SDS_P2;PMS_P1;PMS_P2;Temp;Humidity;BMP_temperature;BMP_pressure;BME280_temperature;BME280_humidity;BME280_pressure;Samples;Min_cycle;Max_cycle;Signal;HPM_P1;HPM_P2
2022/10/25 00:00:23;;;;;;;1.90;1.80;;;14.20;99.90;;;;;;4985396;28;21056;-82
2022/10/25 00:02:50;;;;;;;1.70;1.60;;;14.30;99.90;;;;;;4985520;28;20233;-79
2022/10/25 00:05:17;;;;;;;2.00;1.80;;;14.20;99.90;;;;;;4984304;28;20275;-78
2022/10/25 00:07:44;;;;;;;1.80;1.70;;;14.20;99.90;;;;;;4985463;28;20200;-80
2022/10/25 00:10:13;;;;;;;1.92;1.83;;;14.20;99.90;;;;;;4984827;28;20225;-78
2022/10/25 00:12:44;;;;;;;1.92;1.83;;;14.30;99.90;;;;;;4982956;28;20225;-78
2022/10/25 00:15:13;;;;;;;2.15;1.92;;;14.30;99.90;;;;;;4985385;28;20221;-79
2022/10/25 00:17:40;;;;;;;1.70;1.60;;;14.30;99.90;;;;;;4981235;28;20208;-80
2022/10/25 00:20:08;;;;;;;1.95;1.85;;;14.30;99.90;;;;;;4983718;28;20236;-77
2022/10/25 00:22:35;;;;;;;3.85;1.88;;;14.30;99.90;;;;;;4987016;28;20225;-79
2022/10/25 00:25:03;;;;;;;1.77;1.67;;;14.30;99.90;;;;;;4986898;28;20213;-78
2022/10/25 00:27:32;;;;;;;2.05;1.95;;;14.30;99.90;;;;;;4981881;28;21113;-83
2022/10/25 00:29:59;;;;;;;1.70;1.60;;;14.30;99.90;;;;;;4984456;28;20217;-79
2022/10/25 00:32:26;;;;;;;1.88;1.77;;;14.30;99.90;;;;;;4983324;28;20219;-79
2022/10/25 00:34:53;;;;;;;2.67;1.92;;;14.30;99.90;;;;;;4985148;28;20230;-78
2022/10/25 00:37:20;;;;;;;1.75;1.65;;;14.30;99.90;;;;;;4987332;28;20193;-79
2022/10/25 00:39:47;;;;;;;1.80;1.70;;;14.20;99.90;;;;;;4993299;28;20225;-77
2022/10/25 00:42:18;;;;;;;2.10;1.40;;;14.20;99.90;;;;;;4985258;28;20228;-81
2022/10/25 00:44:51;;;;;;;1.60;1.50;;;14.20;99.90;;;;;;4984697;28;20279;-81
2022/10/25 00:47:38;;;;;;;1.60;1.50;;;14.20;99.90;;;;;;4982946;28;20712;-78
2022/10/25 00:50:16;;;;;;;1.90;1.80;;;14.20;99.90;;;;;;4986364;28;20301;-78
2022/10/25 00:52:47;;;;;;;1.60;1.50;;;14.20;99.90;;;;;;4987262;28;20243;-80
2022/10/25 00:55:17;;;;;;;2.00;1.90;;;14.20;99.90;;;;;;4988329;28;20213;-82
2022/10/25 00:57:51;;;;;;;1.70;1.60;;;14.20;99.90;;;;;;4988850;28;20680;-78
2022/10/25 01:00:20;;;;;;;1.90;1.80;;;14.20;99.90;;;;;;4986395;28;20219;-82
2022/10/25 01:02:47;;;;;;;1.55;1.45;;;14.10;99.90;;;;;;4983112;28;20229;-75
2022/10/25 01:05:16;;;;;;;1.80;1.70;;;14.20;99.90;;;;;;4988617;28;20278;-80
2022/10/25 01:07:44;;;;;;;1.60;1.50;;;14.10;99.90;;;;;;4991388;28;20200;-80
2022/10/25 01:10:11;;;;;;;2.92;1.63;;;14.10;99.90;;;;;;4990083;28;20225;-80
2022/10/25 01:12:38;;;;;;;1.70;1.60;;;14.10;99.90;;;;;;4987239;28;20222;-81
2022/10/25 01:15:06;;;;;;;1.48;1.38;;;14.10;99.90;;;;;;4987494;28;20221;-83
2022/10/25 01:17:45;;;;;;;1.70;1.60;;;14.10;99.90;;;;;;4986935;28;20420;-77
2022/10/25 01:20:35;;;;;;;1.60;1.50;;;14.10;99.90;;;;;;4986376;28;20224;-78
2022/10/25 01:23:17;;;;;;;1.75;1.65;;;14.10;99.90;;;;;;4981518;28;20222;-80
2022/10/25 01:26:05;;;;;;;1.83;1.73;;;14.10;99.90;;;;;;5015075;22;20706;-74
2022/10/25 01:28:46;;;;;;;1.98;1.88;;;14.00;99.90;;;;;;5055145;28;20700;-71
2022/10/25 01:31:34;;;;;;;1.70;1.60;;;14.00;99.90;;;;;;5068011;28;20222;-72
2022/10/25 01:34:06;;;;;;;1.40;1.40;;;14.00;99.90;;;;;;5074954;28;20198;-74
2022/10/25 01:36:42;;;;;;;2.00;1.90;;;13.90;99.90;;;;;;5067510;28;20213;-72
2022/10/25 01:39:13;;;;;;;1.70;1.60;;;13.90;99.90;;;;;;5069135;28;20241;-73
2022/10/25 01:41:49;;;;;;;1.88;1.77;;;13.90;99.90;;;;;;5059975;28;20228;-73
2022/10/25 01:44:30;;;;;;;1.73;1.63;;;13.90;99.90;;;;;;5059038;28;20259;-71
2022/10/25 01:47:03;;;;;;;1.80;1.70;;;13.90;99.90;;;;;;5061364;28;20222;-72
2022/10/25 01:49:40;;;;;;;1.90;1.70;;;13.90;99.90;;;;;;5070287;28;20193;-74
2022/10/25 01:52:08;;;;;;;3.35;2.13;;;14.00;99.90;;;;;;5068090;28;20203;-71
2022/10/25 01:54:36;;;;;;;1.88;1.77;;;13.90;99.90;;;;;;5070429;28;20201;-73
2022/10/25 01:57:30;;;;;;;1.92;1.75;;;13.90;99.90;;;;;;5066087;28;20214;-74
2022/10/25 02:00:10;;;;;;;1.80;1.70;;;13.90;99.90;;;;;;5066368;28;20225;-73
2022/10/25 02:02:51;;;;;;;1.98;1.88;;;13.90;99.90;;;;;;5070866;28;20210;-74
2022/10/25 02:05:26;;;;;;;3.00;1.75;;;13.90;99.90;;;;;;5070985;28;20220;-75
2022/10/25 02:08:02;;;;;;;1.70;1.60;;;13.90;99.90;;;;;;5064319;28;20313;-75
2022/10/25 02:10:35;;;;;;;2.03;1.80;;;13.90;99.90;;;;;;5048119;28;20629;-76
2022/10/25 02:13:08;;;;;;;1.80;1.70;;;13.90;99.90;;;;;;5052129;28;20194;-74
2022/10/25 02:15:40;;;;;;;1.70;1.60;;;13.90;99.90;;;;;;5066546;28;20226;-75
2022/10/25 02:18:14;;;;;;;1.67;1.58;;;13.90;99.90;;;;;;5062797;28;20229;-72
2022/10/25 02:20:43;;;;;;;2.25;2.10;;;13.90;99.90;;;;;;5066021;28;20221;-71
2022/10/25 02:23:11;;;;;;;2.67;1.77;;;13.90;99.90;;;;;;5068273;28;20198;-76
2022/10/25 02:25:41;;;;;;;2.00;1.80;;;13.80;99.90;;;;;;5072155;28;20225;-73
2022/10/25 02:28:11;;;;;;;1.77;1.67;;;13.70;99.90;;;;;;5069576;28;20213;-74
2022/10/25 02:30:43;;;;;;;1.92;1.65;;;13.70;99.90;;;;;;5063916;28;20221;-73
2022/10/25 02:33:12;;;;;;;1.70;1.60;;;13.70;99.90;;;;;;5071696;28;20203;-76
2022/10/25 02:35:40;;;;;;;1.80;1.67;;;13.70;99.90;;;;;;5068216;28;20214;-74
2022/10/25 02:38:08;;;;;;;1.98;1.88;;;13.70;99.90;;;;;;5065370;28;20226;-72
2022/10/25 02:40:36;;;;;;;1.90;1.80;;;13.70;99.90;;;;;;5049576;28;20221;-72
2022/10/25 02:43:03;;;;;;;1.80;1.70;;;13.70;99.90;;;;;;5070245;28;20655;-73
2022/10/25 02:45:31;;;;;;;2.00;1.90;;;13.70;99.90;;;;;;5064140;28;20593;-74
2022/10/25 02:47:59;;;;;;;1.98;1.88;;;13.70;99.90;;;;;;5068672;28;20217;-72
2022/10/25 02:50:28;;;;;;;1.90;1.80;;;13.70;99.90;;;;;;5068132;28;20244;-74
2022/10/25 02:52:55;;;;;;;1.75;1.65;;;13.70;99.90;;;;;;5067613;28;20574;-75
2022/10/25 02:55:23;;;;;;;2.80;1.60;;;13.70;99.90;;;;;;5048320;28;20223;-72
2022/10/25 02:57:50;;;;;;;1.55;1.45;;;13.70;99.90;;;;;;5068762;28;20218;-73
2022/10/25 03:00:18;;;;;;;1.48;1.48;;;13.70;99.90;;;;;;5068164;28;20237;-72
2022/10/25 03:02:46;;;;;;;1.60;1.50;;;13.70;99.90;;;;;;5048601;28;20198;-73
2022/10/25 03:05:13;;;;;;;1.27;1.27;;;13.70;99.90;;;;;;5052119;28;20613;-73
2022/10/25 03:07:42;;;;;;;1.70;1.60;;;13.70;99.90;;;;;;5064377;28;20218;-73
2022/10/25 03:10:10;;;;;;;1.80;1.70;;;13.70;99.90;;;;;;5065721;28;20218;-73
2022/10/25 03:12:37;;;;;;;1.75;1.65;;;13.70;99.90;;;;;;5064720;28;20195;-72
2022/10/25 03:15:05;;;;;;;1.80;1.70;;;13.70;99.90;;;;;;5066457;28;20230;-74
2022/10/25 03:17:32;;;;;;;1.75;1.65;;;13.60;99.90;;;;;;5067491;28;20222;-74
2022/10/25 03:20:00;;;;;;;2.20;1.65;;;13.60;99.90;;;;;;5071772;28;20639;-74
2022/10/25 03:22:27;;;;;;;1.80;1.70;;;13.60;99.90;;;;;;5045424;28;20248;-74
2022/10/25 03:24:55;;;;;;;1.60;1.50;;;13.70;99.90;;;;;;5067022;28;20218;-73
2022/10/25 03:27:23;;;;;;;1.50;1.50;;;13.70;99.90;;;;;;5061714;28;20218;-72
2022/10/25 03:29:51;;;;;;;1.90;1.60;;;13.70;99.90;;;;;;5068940;28;20636;-72
2022/10/25 03:32:18;;;;;;;1.60;1.50;;;13.70;99.90;;;;;;5067174;28;20198;-71
2022/10/25 03:34:45;;;;;;;1.65;1.55;;;13.70;99.90;;;;;;5065857;28;20240;-76
2022/10/25 03:37:13;;;;;;;1.60;1.50;;;13.70;99.90;;;;;;5068236;28;20218;-73
2022/10/25 03:39:40;;;;;;;1.60;1.50;;;13.60;99.90;;;;;;5067008;28;20274;-74
2022/10/25 03:42:09;;;;;;;1.65;1.55;;;13.60;99.90;;;;;;5065195;28;20309;-72
2022/10/25 03:44:36;;;;;;;2.58;1.90;;;13.60;99.90;;;;;;5074058;28;20198;-73
2022/10/25 03:47:04;;;;;;;1.92;1.48;;;13.60;99.90;;;;;;5064161;28;20896;-74
2022/10/25 03:49:31;;;;;;;1.50;1.40;;;13.50;99.90;;;;;;5068786;28;20647;-74
2022/10/25 03:51:59;;;;;;;4.50;1.90;;;13.50;99.90;;;;;;5065188;28;20674;-72
2022/10/25 03:54:26;;;;;;;1.60;1.50;;;13.50;99.90;;;;;;5064324;28;20201;-72
2022/10/25 03:56:56;;;;;;;1.90;1.80;;;13.40;99.90;;;;;;5063355;28;20217;-71
2022/10/25 03:59:25;;;;;;;1.67;1.58;;;13.40;99.90;;;;;;5065148;28;20680;-71
2022/10/25 04:01:53;;;;;;;3.10;1.55;;;13.40;99.90;;;;;;5066077;28;20198;-73
2022/10/25 04:04:20;;;;;;;1.83;1.73;;;13.40;99.90;;;;;;5063812;28;20202;-72
2022/10/25 04:06:48;;;;;;;1.77;1.67;;;13.40;99.90;;;;;;5063331;28;20218;-75
2022/10/25 04:09:15;;;;;;;1.60;1.50;;;13.40;99.90;;;;;;5069741;28;20237;-76
2022/10/25 04:11:43;;;;;;;1.55;1.40;;;13.40;99.90;;;;;;5052698;28;20226;-74
2022/10/25 04:14:10;;;;;;;2.00;1.90;;;13.40;99.90;;;;;;5073937;28;20217;-73
2022/10/25 04:16:39;;;;;;;1.73;1.63;;;13.40;99.90;;;;;;5070330;28;20247;-73
2022/10/25 04:19:07;;;;;;;1.55;1.45;;;13.30;99.90;;;;;;5072747;28;20587;-72
2022/10/25 04:21:34;;;;;;;1.60;1.50;;;13.30;99.90;;;;;;5067507;28;20214;-73
2022/10/25 04:24:03;;;;;;;1.45;1.35;;;13.30;99.90;;;;;;5053422;28;20203;-78
2022/10/25 04:26:33;;;;;;;1.55;1.45;;;13.30;99.90;;;;;;5067376;28;20218;-74
2022/10/25 04:29:01;;;;;;;1.50;1.40;;;13.30;99.90;;;;;;5071969;28;20222;-75
2022/10/25 04:31:28;;;;;;;1.38;1.30;;;13.30;99.90;;;;;;5073479;28;20213;-75
2022/10/25 04:33:57;;;;;;;1.35;1.20;;;13.20;99.90;;;;;;5065159;28;20547;-73
2022/10/25 04:36:25;;;;;;;1.58;1.48;;;13.20;99.90;;;;;;5054638;28;20260;-73
2022/10/25 04:38:53;;;;;;;1.55;1.48;;;13.20;99.90;;;;;;5066283;28;20226;-73
2022/10/25 04:41:21;;;;;;;1.55;1.45;;;13.20;99.90;;;;;;5049530;28;20218;-73
2022/10/25 04:43:49;;;;;;;1.42;1.42;;;13.20;99.90;;;;;;5072713;28;20201;-75
2022/10/25 04:46:16;;;;;;;1.45;1.40;;;13.20;99.90;;;;;;5051943;28;20226;-72
2022/10/25 04:48:44;;;;;;;1.58;1.45;;;13.20;99.90;;;;;;5065893;28;20226;-74
2022/10/25 04:51:13;;;;;;;1.70;1.60;;;13.10;99.90;;;;;;5065120;28;20218;-74
2022/10/25 04:53:41;;;;;;;1.63;1.52;;;13.10;99.90;;;;;;5068386;28;20194;-74
2022/10/25 04:56:10;;;;;;;2.05;1.95;;;13.10;99.90;;;;;;5070508;28;20275;-75
2022/10/25 04:58:38;;;;;;;2.08;1.90;;;13.00;99.90;;;;;;5051041;28;20225;-72
2022/10/25 05:01:07;;;;;;;2.10;2.00;;;13.00;99.90;;;;;;5051915;28;20217;-77
2022/10/25 05:03:35;;;;;;;1.92;1.83;;;13.00;99.90;;;;;;5045923;28;20195;-74
2022/10/25 05:06:08;;;;;;;1.77;1.67;;;13.00;99.90;;;;;;5068131;28;20568;-72
2022/10/25 05:08:38;;;;;;;1.88;1.77;;;13.00;99.90;;;;;;5072100;28;20206;-73
2022/10/25 05:11:07;;;;;;;1.95;1.60;;;12.90;99.90;;;;;;5066825;28;20241;-72
2022/10/25 05:13:35;;;;;;;1.60;1.50;;;12.90;99.90;;;;;;5070831;28;20197;-72
2022/10/25 05:16:03;;;;;;;1.70;1.60;;;12.90;99.90;;;;;;5071710;28;20640;-72
2022/10/25 05:18:31;;;;;;;1.73;1.63;;;12.90;99.90;;;;;;5068469;28;20233;-72
2022/10/25 05:21:00;;;;;;;2.30;1.70;;;12.80;99.90;;;;;;5063852;28;20638;-76
2022/10/25 05:23:28;;;;;;;1.48;1.38;;;12.80;99.90;;;;;;5064269;28;20574;-73
2022/10/25 05:26:05;;;;;;;1.63;1.52;;;12.80;99.90;;;;;;5070514;28;20217;-72
2022/10/25 05:28:33;;;;;;;1.33;1.33;;;12.80;99.90;;;;;;5070475;28;20233;-74
2022/10/25 05:31:05;;;;;;;1.63;1.52;;;12.80;99.90;;;;;;5064993;28;20419;-73
2022/10/25 05:33:33;;;;;;;3.10;1.50;;;12.80;99.90;;;;;;5068090;28;20203;-72
2022/10/25 05:36:00;;;;;;;4.00;1.90;;;12.90;99.90;;;;;;5069667;28;20574;-73
2022/10/25 05:38:28;;;;;;;1.63;1.52;;;12.90;99.90;;;;;;5063326;28;20210;-74
2022/10/25 05:40:57;;;;;;;1.80;1.70;;;12.90;99.90;;;;;;5047821;28;20740;-73
2022/10/25 05:43:27;;;;;;;1.85;1.75;;;12.90;99.90;;;;;;5065389;28;20216;-72
2022/10/25 05:46:02;;;;;;;1.52;1.42;;;12.90;99.90;;;;;;5064564;28;20218;-72
2022/10/25 05:48:30;;;;;;;1.75;1.65;;;12.90;99.90;;;;;;5063239;28;20257;-75
2022/10/25 05:51:09;;;;;;;1.70;1.60;;;12.80;99.90;;;;;;5047532;28;20265;-79
2022/10/25 05:53:37;;;;;;;1.60;1.50;;;12.90;99.90;;;;;;5049445;28;20205;-79
2022/10/25 05:56:05;;;;;;;1.70;1.60;;;12.90;99.90;;;;;;5071168;28;20236;-78
2022/10/25 05:58:34;;;;;;;3.08;1.80;;;12.90;99.90;;;;;;5070711;28;20225;-78
2022/10/25 06:01:02;;;;;;;2.83;1.30;;;13.00;99.90;;;;;;5068438;28;20229;-79
2022/10/25 06:03:29;;;;;;;1.55;1.45;;;13.00;99.90;;;;;;5054827;28;20202;-77
2022/10/25 06:06:01;;;;;;;1.95;1.85;;;13.00;99.90;;;;;;5067219;28;20219;-79
2022/10/25 06:08:29;;;;;;;1.90;1.67;;;13.00;99.90;;;;;;5048160;28;20242;-80
2022/10/25 06:11:01;;;;;;;2.25;1.77;;;13.00;99.90;;;;;;5072512;28;20213;-79
2022/10/25 06:13:29;;;;;;;1.50;1.40;;;12.90;99.90;;;;;;5035134;28;20550;-80
2022/10/25 06:15:58;;;;;;;2.20;2.00;;;12.90;99.90;;;;;;5070365;28;20272;-77
2022/10/25 06:18:25;;;;;;;1.70;1.60;;;12.90;99.90;;;;;;5041087;28;20228;-78
2022/10/25 06:20:53;;;;;;;1.60;1.50;;;12.80;99.90;;;;;;5051922;28;20229;-77
2022/10/25 06:23:20;;;;;;;1.95;1.70;;;12.80;99.90;;;;;;5035895;28;20556;-78
2022/10/25 06:25:48;;;;;;;1.60;1.50;;;12.80;99.90;;;;;;5051333;28;20229;-80
2022/10/25 06:28:16;;;;;;;1.60;1.50;;;12.70;99.90;;;;;;5052509;28;20214;-79
2022/10/25 06:30:43;;;;;;;1.60;1.50;;;12.70;99.90;;;;;;5062502;28;20226;-79
2022/10/25 06:33:12;;;;;;;1.58;1.48;;;12.70;99.90;;;;;;5071230;28;20213;-80
2022/10/25 06:35:39;;;;;;;1.55;1.45;;;12.80;99.90;;;;;;5063566;28;20719;-78
2022/10/25 06:38:07;;;;;;;1.35;1.30;;;12.90;99.90;;;;;;5047985;28;20230;-77
2022/10/25 06:40:34;;;;;;;1.70;1.60;;;12.90;99.90;;;;;;5067104;28;20214;-79
2022/10/25 06:43:03;;;;;;;1.60;1.50;;;12.90;99.90;;;;;;5068197;28;20209;-80
2022/10/25 06:45:30;;;;;;;1.67;1.58;;;12.90;99.90;;;;;;5066513;28;20226;-81
2022/10/25 06:47:57;;;;;;;1.90;1.80;;;12.80;99.90;;;;;;5066760;28;20210;-81
2022/10/25 06:50:27;;;;;;;2.28;2.08;;;12.90;99.90;;;;;;5049310;28;20214;-77
2022/10/25 06:52:54;;;;;;;1.58;1.58;;;12.90;99.90;;;;;;5063758;28;20194;-77
2022/10/25 06:55:21;;;;;;;1.80;1.70;;;12.90;99.90;;;;;;5057354;28;20217;-78
2022/10/25 06:57:49;;;;;;;1.65;1.60;;;13.00;99.90;;;;;;5046308;28;20218;-76
2022/10/25 07:00:16;;;;;;;1.67;1.58;;;13.10;99.90;;;;;;5057654;28;20226;-79
2022/10/25 07:02:44;;;;;;;2.10;2.00;;;13.20;99.90;;;;;;5060169;28;20201;-78
2022/10/25 07:05:11;;;;;;;2.00;1.90;;;13.40;99.90;;;;;;5028539;28;20760;-78
2022/10/25 07:07:40;;;;;;;1.83;1.73;;;13.70;99.90;;;;;;5042979;28;20268;-79
2022/10/25 07:10:12;;;;;;;1.90;1.80;;;14.00;99.90;;;;;;5046129;28;20233;-80
2022/10/25 07:12:41;;;;;;;3.28;2.00;;;14.30;99.90;;;;;;5065636;28;20214;-78
2022/10/25 07:15:09;;;;;;;2.30;2.10;;;14.40;99.90;;;;;;5058402;28;20222;-77
2022/10/25 07:17:37;;;;;;;2.20;2.10;;;14.40;99.90;;;;;;5058721;28;20218;-80
2022/10/25 07:20:05;;;;;;;2.50;2.30;;;14.50;99.90;;;;;;5063706;28;20764;-77
2022/10/25 07:22:33;;;;;;;2.05;1.85;;;14.90;99.90;;;;;;5061985;28;20209;-78
2022/10/25 07:25:02;;;;;;;2.53;2.00;;;15.80;99.90;;;;;;5064749;28;20223;-78
2022/10/25 07:27:33;;;;;;;2.45;2.25;;;16.70;99.90;;;;;;5063552;28;20214;-77
2022/10/25 07:30:00;;;;;;;4.68;2.00;;;17.40;99.90;;;;;;5054206;28;20222;-77
2022/10/25 07:32:28;;;;;;;2.40;1.65;;;18.00;99.90;;;;;;5058374;28;20216;-70
2022/10/25 07:34:55;;;;;;;1.83;1.70;;;18.30;99.90;;;;;;5048782;28;20218;-71
2022/10/25 07:37:22;;;;;;;1.60;1.50;;;18.40;99.90;;;;;;5062264;28;20222;-73
2022/10/25 07:39:50;;;;;;;2.03;1.83;;;18.60;99.90;;;;;;5057169;28;20222;-72
2022/10/25 07:42:19;;;;;;;2.15;1.80;;;18.90;99.90;;;;;;5043006;28;20202;-71
2022/10/25 07:44:46;;;;;;;1.75;1.52;;;19.00;99.90;;;;;;5063188;28;20249;-70
2022/10/25 07:47:14;;;;;;;1.60;1.50;;;19.10;99.90;;;;;;5061036;28;20200;-72
2022/10/25 07:49:41;;;;;;;2.88;1.30;;;19.20;99.90;;;;;;5060338;28;20225;-70
2022/10/25 07:52:10;;;;;;;2.17;1.70;;;19.50;99.90;;;;;;5042863;28;20209;-70
2022/10/25 07:54:37;;;;;;;2.75;1.80;;;19.50;99.90;;;;;;5058868;28;20728;-70
2022/10/25 07:57:05;;;;;;;1.80;1.70;;;19.40;99.90;;;;;;5060498;28;20778;-69
2022/10/25 07:59:34;;;;;;;2.08;1.77;;;19.10;99.90;;;;;;5061528;28;20205;-69
2022/10/25 08:02:02;;;;;;;2.47;1.98;;;19.00;99.90;;;;;;5062116;28;20193;-69
2022/10/25 08:04:31;;;;;;;2.78;1.95;;;18.80;99.90;;;;;;5056617;28;20205;-70
2022/10/25 08:07:00;;;;;;;1.80;1.70;;;18.80;99.90;;;;;;5057141;28;20190;-72
2022/10/25 08:09:28;;;;;;;3.60;2.00;;;19.10;99.90;;;;;;5045476;28;20218;-72
2022/10/25 08:11:56;;;;;;;1.65;1.55;;;19.10;99.90;;;;;;5063125;28;20666;-71
2022/10/25 08:14:23;;;;;;;1.45;1.35;;;19.20;99.90;;;;;;5057235;28;20220;-73
2022/10/25 08:16:52;;;;;;;2.42;1.70;;;19.30;99.90;;;;;;5061135;28;20202;-71
2022/10/25 08:19:20;;;;;;;1.67;1.58;;;19.30;99.90;;;;;;5059227;28;20226;-73
2022/10/25 08:21:47;;;;;;;1.70;1.60;;;19.40;99.90;;;;;;5041716;28;20222;-73
2022/10/25 08:24:15;;;;;;;1.70;1.60;;;19.70;99.90;;;;;;5059345;28;20214;-73
2022/10/25 08:26:42;;;;;;;1.80;1.70;;;20.00;99.90;;;;;;5064557;28;20230;-74
2022/10/25 08:29:10;;;;;;;1.73;1.52;;;20.30;99.90;;;;;;5058215;28;20237;-74
2022/10/25 08:31:37;;;;;;;1.92;1.80;;;20.70;99.90;;;;;;5057066;28;20229;-73
2022/10/25 08:34:07;;;;;;;1.83;1.50;;;21.10;99.90;;;;;;5060988;28;20440;-74
2022/10/25 08:36:34;;;;;;;3.28;1.70;;;21.30;99.90;;;;;;5040091;28;20225;-73
2022/10/25 08:39:01;;;;;;;3.15;1.60;;;21.50;99.90;;;;;;5058477;28;20474;-73
2022/10/25 08:41:39;;;;;;;3.35;1.75;;;21.40;99.90;;;;;;5066515;28;20243;-73
2022/10/25 08:44:26;;;;;;;2.15;1.40;;;21.60;99.90;;;;;;5045582;28;20194;-73
2022/10/25 08:46:59;;;;;;;1.77;1.35;;;21.60;99.90;;;;;;5056930;28;20211;-74
2022/10/25 08:49:37;;;;;;;1.65;1.55;;;21.50;99.90;;;;;;5059162;28;20229;-74
2022/10/25 08:52:07;;;;;;;2.28;1.48;;;21.60;99.90;;;;;;5062454;28;20202;-74
2022/10/25 08:54:38;;;;;;;2.85;1.60;;;21.40;99.90;;;;;;5062141;28;20562;-74
2022/10/25 08:57:11;;;;;;;2.35;1.50;;;21.30;99.90;;;;;;5063851;28;20199;-74
2022/10/25 08:59:42;;;;;;;3.33;1.40;;;21.10;99.90;;;;;;5061365;28;20730;-74
2022/10/25 09:02:21;;;;;;;1.42;1.30;;;21.10;99.90;;;;;;5067227;28;20194;-74
2022/10/25 09:04:50;;;;;;;1.40;1.30;;;20.70;99.90;;;;;;5066914;28;20252;-75
2022/10/25 09:07:40;;;;;;;1.92;1.55;;;20.90;99.90;;;;;;5053182;28;20257;-74
2022/10/25 09:10:20;;;;;;;1.83;1.38;;;21.00;99.90;;;;;;5064441;28;20218;-75
2022/10/25 09:12:54;;;;;;;2.65;1.40;;;21.30;99.90;;;;;;5066076;28;20695;-74
2022/10/25 09:15:38;;;;;;;2.13;1.92;;;21.40;99.90;;;;;;5066615;28;20213;-75
2022/10/25 09:18:15;;;;;;;1.38;1.27;;;21.60;99.90;;;;;;5065967;28;20267;-74
2022/10/25 09:20:49;;;;;;;1.98;1.40;;;21.70;99.90;;;;;;5062600;28;20214;-74
2022/10/25 09:23:26;;;;;;;1.63;1.52;;;21.70;99.90;;;;;;5068804;28;20651;-74
2022/10/25 09:26:02;;;;;;;3.03;1.45;;;21.50;99.90;;;;;;5071411;28;20218;-74
2022/10/25 09:28:50;;;;;;;1.50;1.30;;;21.30;99.90;;;;;;5051280;28;20256;-74
2022/10/25 09:31:23;;;;;;;1.35;1.25;;;21.20;99.90;;;;;;5052530;28;20218;-75
2022/10/25 09:33:56;;;;;;;1.42;1.33;;;21.40;99.90;;;;;;5067938;28;20550;-74
2022/10/25 09:36:28;;;;;;;1.92;1.10;;;21.60;99.90;;;;;;5049598;28;20330;-74
2022/10/25 09:38:59;;;;;;;1.30;1.20;;;21.50;99.90;;;;;;5066722;28;20214;-74
2022/10/25 09:41:35;;;;;;;1.33;1.20;;;21.80;99.90;;;;;;5068795;28;20221;-75
2022/10/25 09:44:06;;;;;;;1.38;1.23;;;21.80;99.90;;;;;;5085725;28;20185;-75
2022/10/25 09:46:38;;;;;;;2.38;1.30;;;21.80;99.90;;;;;;5070260;28;20226;-74
2022/10/25 09:49:18;;;;;;;2.03;1.52;;;21.90;99.90;;;;;;5072457;28;20206;-74
2022/10/25 09:51:56;;;;;;;1.23;1.13;;;21.90;99.90;;;;;;5071402;28;20224;-74
2022/10/25 09:54:29;;;;;;;2.90;1.40;;;21.90;99.90;;;;;;5068433;28;20199;-75
2022/10/25 09:56:56;;;;;;;1.77;1.42;;;21.90;99.90;;;;;;5069300;28;20681;-75
2022/10/25 09:59:26;;;;;;;1.33;1.23;;;22.00;99.90;;;;;;5045624;28;20206;-75
2022/10/25 10:01:54;;;;;;;2.25;1.30;;;21.80;99.90;;;;;;5067949;28;20212;-74
2022/10/25 10:04:28;;;;;;;1.33;1.15;;;21.80;99.90;;;;;;5064270;28;20201;-75
2022/10/25 10:07:03;;;;;;;1.33;1.10;;;22.10;99.90;;;;;;5069164;28;20570;-75
2022/10/25 10:09:32;;;;;;;1.88;1.35;;;22.20;99.90;;;;;;5066172;28;20248;-75
2022/10/25 10:12:02;;;;;;;1.77;1.20;;;22.40;99.90;;;;;;5069513;28;20190;-75
2022/10/25 10:14:37;;;;;;;1.23;1.05;;;22.40;99.90;;;;;;5067053;28;20742;-75
2022/10/25 10:17:12;;;;;;;1.50;1.30;;;22.60;99.90;;;;;;5032782;28;20545;-74
2022/10/25 10:19:40;;;;;;;1.58;1.48;;;22.20;99.90;;;;;;5047810;28;20746;-74
2022/10/25 10:22:13;;;;;;;1.02;1.02;;;21.90;99.90;;;;;;5049122;28;20229;-75
2022/10/25 10:24:43;;;;;;;1.23;1.13;;;21.60;99.90;;;;;;5049471;28;20226;-75
2022/10/25 10:27:13;;;;;;;1.58;1.20;;;21.70;99.90;;;;;;5064142;28;20202;-75
2022/10/25 10:29:55;;;;;;;1.80;1.35;;;21.80;99.90;;;;;;5072159;28;20222;-75
2022/10/25 10:32:25;;;;;;;4.10;1.35;;;21.80;99.90;;;;;;5065954;28;20198;-75
2022/10/25 10:34:55;;;;;;;1.67;1.40;;;21.70;99.90;;;;;;5067434;28;20221;-75
2022/10/25 10:37:25;;;;;;;1.00;1.00;;;21.90;99.90;;;;;;5068227;28;20215;-75
2022/10/25 10:39:54;;;;;;;1.30;1.20;;;22.10;99.90;;;;;;5062893;28;20217;-75
2022/10/25 10:42:23;;;;;;;2.13;1.48;;;22.20;99.90;;;;;;5048752;28;20233;-74
2022/10/25 10:45:16;;;;;;;1.88;1.20;;;22.20;99.90;;;;;;5049475;28;20221;-75
2022/10/25 10:47:45;;;;;;;1.50;1.40;;;22.20;99.90;;;;;;5056560;28;20233;-75
2022/10/25 10:50:24;;;;;;;2.00;1.33;;;22.50;99.90;;;;;;5068165;28;20227;-76
2022/10/25 10:52:58;;;;;;;1.48;1.30;;;22.60;99.90;;;;;;5080577;28;20201;-75
2022/10/25 10:55:30;;;;;;;1.63;1.30;;;22.70;99.90;;;;;;5067005;28;20218;-75
2022/10/25 10:58:01;;;;;;;3.63;1.25;;;22.70;99.90;;;;;;5069176;28;20264;-75
2022/10/25 11:00:32;;;;;;;1.10;1.10;;;22.80;99.90;;;;;;5066279;28;20211;-75
2022/10/25 11:03:00;;;;;;;1.33;1.20;;;22.60;99.90;;;;;;5070032;28;20217;-76
2022/10/25 11:05:29;;;;;;;1.10;1.10;;;22.60;99.90;;;;;;5065959;28;20218;-76
2022/10/25 11:08:00;;;;;;;1.60;1.50;;;22.60;99.90;;;;;;5067223;28;20217;-75
2022/10/25 11:10:31;;;;;;;1.23;1.10;;;22.60;99.90;;;;;;5068292;28;20214;-76
2022/10/25 11:13:07;;;;;;;1.30;1.20;;;22.40;99.90;;;;;;5068042;28;20198;-75
2022/10/25 11:15:50;;;;;;;2.47;1.05;;;22.50;99.90;;;;;;5066905;28;20225;-76
2022/10/25 11:18:24;;;;;;;1.33;1.23;;;22.60;99.90;;;;;;5061075;28;20599;-75
2022/10/25 11:20:55;;;;;;;1.30;1.20;;;22.60;99.90;;;;;;5069016;28;20215;-75
2022/10/25 11:23:30;;;;;;;1.20;1.10;;;22.50;99.90;;;;;;5067877;28;20652;-76
2022/10/25 11:26:03;;;;;;;1.70;1.40;;;22.30;99.90;;;;;;5050644;28;20283;-76
2022/10/25 11:28:45;;;;;;;1.52;1.08;;;22.20;99.90;;;;;;5066290;28;20206;-76
2022/10/25 11:31:21;;;;;;;1.13;1.02;;;22.00;99.90;;;;;;5066457;28;20222;-75
2022/10/25 11:34:02;;;;;;;1.33;1.10;;;22.10;99.90;;;;;;5062252;28;20285;-75
2022/10/25 11:36:48;;;;;;;1.58;0.80;;;22.20;99.90;;;;;;5046640;28;20248;-75
2022/10/25 11:39:37;;;;;;;1.60;1.50;;;22.10;99.90;;;;;;5053335;28;20217;-75
2022/10/25 11:42:20;;;;;;;1.35;1.25;;;22.20;99.90;;;;;;5049336;28;20217;-76
2022/10/25 11:45:29;;;;;;;1.55;1.40;;;21.90;99.90;;;;;;5064832;28;20225;-76
2022/10/25 11:48:28;;;;;;;1.75;1.45;;;21.70;99.90;;;;;;5044788;28;20218;-75
2022/10/25 11:51:06;;;;;;;1.20;1.10;;;21.60;99.90;;;;;;5065012;28;20245;-76
2022/10/25 11:53:52;;;;;;;2.25;1.10;;;21.60;99.90;;;;;;5062533;28;20225;-75
2022/10/25 11:56:31;;;;;;;1.10;1.00;;;21.70;99.90;;;;;;5045936;28;20218;-75
2022/10/25 11:59:10;;;;;;;1.00;0.90;;;21.90;99.90;;;;;;5052073;28;20218;-75
2022/10/25 12:01:48;;;;;;;2.00;1.10;;;21.80;99.90;;;;;;5081548;28;20231;-75
2022/10/25 12:04:34;;;;;;;1.98;0.90;;;21.70;99.90;;;;;;5065519;28;20198;-75
2022/10/25 12:07:07;;;;;;;1.65;1.27;;;21.80;99.90;;;;;;5074987;28;20221;-75
2022/10/25 12:09:45;;;;;;;1.30;1.20;;;21.90;99.90;;;;;;5063238;28;20198;-76
2022/10/25 12:12:17;;;;;;;1.10;1.00;;;21.90;99.90;;;;;;5073303;28;20201;-75
2022/10/25 12:14:49;;;;;;;1.00;0.90;;;21.90;99.90;;;;;;5069924;28;20221;-76
2022/10/25 12:17:23;;;;;;;2.40;1.00;;;21.80;99.90;;;;;;5047760;28;20194;-76
2022/10/25 12:19:53;;;;;;;1.17;1.08;;;21.80;99.90;;;;;;5065377;28;20225;-76
2022/10/25 12:22:24;;;;;;;1.50;1.20;;;21.90;99.90;;;;;;5067747;28;20202;-75
2022/10/25 12:24:57;;;;;;;1.40;1.20;;;22.00;99.90;;;;;;5067898;28;20442;-76
2022/10/25 12:27:28;;;;;;;1.20;1.10;;;22.10;99.90;;;;;;5061639;28;20226;-76
2022/10/25 12:30:01;;;;;;;1.30;1.20;;;22.00;99.90;;;;;;5068883;28;20213;-76
2022/10/25 12:32:34;;;;;;;1.75;1.15;;;21.80;99.90;;;;;;5067716;28;20190;-75
2022/10/25 12:35:05;;;;;;;1.02;1.02;;;21.70;99.90;;;;;;5050124;28;20712;-76
2022/10/25 12:37:38;;;;;;;1.33;1.00;;;21.90;99.90;;;;;;5052268;28;20226;-75
2022/10/25 12:40:14;;;;;;;2.03;0.95;;;22.00;99.90;;;;;;5072407;28;20229;-76
2022/10/25 12:42:46;;;;;;;0.77;0.77;;;21.90;99.90;;;;;;5071278;28;20206;-76
2022/10/25 12:45:32;;;;;;;1.55;1.13;;;21.90;99.90;;;;;;5073433;28;20229;-76
2022/10/25 12:48:14;;;;;;;2.58;1.13;;;21.70;99.90;;;;;;5032345;28;20590;-76
2022/10/25 12:50:54;;;;;;;1.10;1.00;;;21.80;99.90;;;;;;5049488;28;20222;-75
2022/10/25 12:53:58;;;;;;;1.35;1.20;;;22.00;99.90;;;;;;5068090;28;20201;-76
2022/10/25 12:56:36;;;;;;;0.90;0.80;;;22.10;99.90;;;;;;5058952;28;20229;-76
2022/10/25 12:59:12;;;;;;;0.90;0.90;;;22.20;99.90;;;;;;5063660;28;20226;-76
2022/10/25 13:01:55;;;;;;;1.98;1.10;;;22.00;99.90;;;;;;5065322;28;20979;-74
2022/10/25 13:04:38;;;;;;;1.02;0.93;;;21.80;99.90;;;;;;5067001;28;20221;-74
2022/10/25 13:07:09;;;;;;;1.08;0.90;;;21.60;99.90;;;;;;5061013;28;20210;-73
2022/10/25 13:09:39;;;;;;;0.80;0.80;;;21.40;99.90;;;;;;5084219;28;20195;-74